createdAt,value
2019-03-11T00:04:49.090Z,75.61
2019-03-11T00:09:56.197Z,75.60
2019-03-11T00:15:03.186Z,75.57
2019-03-11T00:20:10.476Z,75.46
2019-03-11T00:25:17.486Z,75.80
2019-03-11T00:30:24.473Z,75.36
2019-03-11T00:35:31.380Z,75.19
2019-03-11T00:40:38.318Z,75.08
2019-03-11T00:45:45.304Z,73.90
2019-03-11T00:50:52.222Z,74.01
2019-03-11T00:55:59.317Z,73.98
2019-03-11T01:01:06.434Z,73.69
2019-03-11T01:06:13.364Z,73.87
2019-03-11T01:11:20.295Z,73.26
2019-03-11T01:16:39.302Z,74.14
2019-03-11T01:21:46.277Z,73.65
2019-03-11T01:26:53.242Z,72.87
2019-03-11T01:32:00.161Z,72.62
2019-03-11T01:37:07.235Z,72.62
2019-03-11T01:42:14.177Z,71.29
2019-03-11T01:47:21.167Z,71.61
2019-03-11T01:52:28.097Z,70.54
2019-03-11T01:57:35.124Z,70.77
2019-03-11T02:02:42.122Z,70.26
2019-03-11T02:07:49.026Z,70.26
2019-03-11T02:12:55.954Z,70.18
2019-03-11T02:18:02.886Z,70.26
2019-03-11T02:23:09.929Z,68.80
2019-03-11T02:28:17.282Z,68.11
2019-03-11T02:33:24.282Z,68.70
2019-03-11T02:38:31.278Z,68.75
2019-03-11T02:43:38.203Z,69.06
2019-03-11T02:48:45.121Z,69.13
2019-03-11T02:53:52.227Z,68.72
2019-03-11T02:59:00.800Z,67.74
2019-03-11T03:04:12.502Z,67.95
2019-03-11T03:09:20.397Z,69.11
2019-03-11T03:14:27.346Z,69.22
2019-03-11T03:19:34.262Z,69.58
2019-03-11T03:24:41.234Z,70.70
2019-03-11T03:29:48.177Z,70.95
2019-03-11T03:34:55.142Z,71.74
2019-03-11T03:40:02.007Z,71.90
2019-03-11T03:45:26.760Z,72.62
2019-03-11T03:50:35.925Z,72.24
2019-03-11T03:55:42.825Z,72.60
2019-03-11T04:00:49.959Z,72.53
2019-03-11T04:05:57.013Z,73.08
2019-03-11T04:11:04.335Z,73.30
2019-03-11T04:16:11.343Z,73.90
2019-03-11T04:21:18.649Z,73.51
2019-03-11T04:26:30.377Z,73.72
2019-03-11T04:31:37.386Z,74.22
2019-03-11T04:36:44.478Z,74.38
2019-03-11T04:41:51.415Z,74.00
2019-03-11T04:46:58.352Z,73.83
2019-03-11T04:52:05.355Z,73.23
2019-03-11T04:57:13.410Z,73.22
2019-03-11T05:02:20.495Z,72.49
2019-03-11T05:07:27.497Z,72.71
2019-03-11T05:12:34.529Z,72.62
2019-03-11T05:17:41.799Z,72.38
2019-03-11T05:22:48.729Z,72.07
2019-03-11T05:27:55.665Z,71.93
2019-03-11T05:33:02.619Z,71.58
2019-03-11T05:38:09.530Z,71.58
2019-03-11T05:43:20.670Z,71.35
2019-03-11T05:48:27.599Z,71.35
2019-03-11T05:53:34.523Z,72.22
2019-03-11T05:58:41.453Z,72.36
2019-03-11T06:03:48.381Z,72.18
2019-03-11T06:08:55.586Z,72.48
2019-03-11T06:14:02.511Z,77.26
2019-03-11T06:19:09.462Z,77.26
2019-03-11T06:24:16.367Z,81.52
2019-03-11T06:29:30.536Z,83.30
2019-03-11T06:34:32.081Z,84.79
2019-03-11T06:39:39.991Z,84.81
2019-03-11T06:44:46.900Z,84.12
2019-03-11T06:49:53.832Z,80.73
2019-03-11T06:55:00.744Z,79.91
2019-03-11T07:00:09.774Z,78.19
2019-03-11T07:05:20.664Z,77.44
2019-03-11T07:10:25.330Z,77.72
2019-03-11T07:15:32.275Z,77.90
2019-03-11T07:20:39.329Z,76.84
2019-03-11T07:25:47.443Z,75.10
2019-03-11T07:30:54.424Z,74.01
2019-03-11T07:36:01.551Z,73.36
2019-03-11T07:41:08.546Z,71.26
2019-03-11T07:46:15.492Z,70.43
2019-03-11T07:51:22.415Z,69.65
2019-03-11T07:56:29.363Z,68.53
2019-03-11T08:01:36.562Z,68.67
2019-03-11T08:06:43.501Z,69.48
2019-03-11T08:11:50.421Z,69.05
2019-03-11T08:16:57.362Z,68.40
2019-03-11T08:22:04.441Z,67.39
2019-03-11T08:27:11.383Z,69.14
2019-03-11T08:32:18.325Z,68.50
2019-03-11T08:37:25.537Z,68.54
2019-03-11T08:42:32.444Z,68.54
2019-03-11T08:47:39.566Z,63.42
2019-03-11T08:52:46.583Z,62.54
2019-03-11T08:57:53.699Z,61.18
2019-03-11T09:03:00.643Z,60.61
2019-03-11T09:08:07.564Z,59.11
2019-03-11T09:13:15.770Z,59.88
2019-03-11T09:18:23.784Z,58.50
2019-03-11T09:23:30.750Z,59.57
2019-03-11T09:28:37.698Z,58.73
2019-03-11T09:33:44.698Z,58.60
2019-03-11T09:38:51.614Z,59.57
2019-03-11T09:43:58.571Z,58.81
2019-03-11T09:49:05.571Z,57.98
2019-03-11T09:54:12.498Z,59.06
2019-03-11T09:59:19.442Z,57.22
2019-03-11T10:04:26.990Z,59.61
2019-03-11T10:09:33.914Z,58.84
2019-03-11T10:14:40.845Z,58.03
2019-03-11T10:19:47.816Z,59.26
2019-03-11T10:24:54.830Z,57.75
2019-03-11T10:30:03.102Z,56.80
2019-03-11T10:35:30.246Z,57.44
2019-03-11T10:40:21.278Z,57.68
2019-03-11T10:45:31.731Z,57.65
2019-03-11T10:50:37.062Z,56.48
2019-03-11T10:55:44.051Z,57.42
2019-03-11T11:00:52.148Z,57.16
2019-03-11T11:05:59.199Z,57.44
2019-03-11T11:11:06.170Z,56.91
2019-03-11T11:16:13.314Z,57.19
2019-03-11T11:21:20.255Z,56.21
2019-03-11T11:26:27.181Z,54.55
2019-03-11T11:31:34.577Z,56.06
2019-03-11T11:36:41.598Z,56.25
2019-03-11T11:41:48.490Z,55.12
2019-03-11T11:46:55.508Z,54.37
2019-03-11T11:52:02.693Z,53.96
2019-03-11T11:57:10.578Z,54.88
2019-03-11T12:02:17.598Z,54.39
2019-03-11T12:07:24.566Z,53.57
2019-03-11T12:12:31.510Z,54.90
2019-03-11T12:17:38.598Z,54.52
2019-03-11T12:22:45.693Z,57.07
2019-03-11T12:27:54.460Z,56.77
2019-03-11T12:33:01.612Z,56.94
2019-03-11T12:38:09.669Z,57.67
2019-03-11T12:43:16.658Z,56.93
2019-03-11T12:48:23.586Z,58.88
2019-03-11T12:53:30.534Z,58.82
2019-03-11T12:58:41.528Z,59.96
2019-03-11T13:03:46.186Z,60.28
2019-03-11T13:08:53.109Z,58.95
2019-03-11T13:14:00.018Z,61.01
2019-03-11T13:19:13.154Z,64.07
2019-03-11T13:24:16.565Z,65.03
2019-03-11T13:29:23.493Z,64.46
2019-03-11T13:34:30.662Z,61.79
2019-03-11T13:39:37.671Z,61.29
2019-03-11T13:44:44.693Z,60.66
2019-03-11T13:49:51.628Z,60.50
2019-03-11T13:55:06.320Z,59.42
2019-03-11T14:00:08.448Z,60.32
2019-03-11T14:05:16.238Z,59.87
2019-03-11T14:10:35.754Z,59.44
2019-03-11T14:15:42.767Z,57.21
2019-03-11T14:20:49.851Z,58.73
2019-03-11T14:25:56.950Z,58.88
2019-03-11T14:31:03.956Z,58.40
2019-03-11T14:36:10.900Z,59.33
2019-03-11T14:41:17.888Z,58.43
2019-03-11T14:46:25.183Z,57.86
2019-03-11T14:51:32.237Z,53.22
2019-03-11T14:56:39.172Z,53.92
2019-03-11T15:01:46.217Z,52.55
2019-03-11T15:06:53.401Z,53.09
2019-03-11T15:12:00.333Z,55.79
2019-03-11T15:17:07.329Z,54.07
2019-03-11T15:22:14.417Z,55.90
2019-03-11T15:27:21.435Z,57.40
2019-03-11T15:32:28.351Z,57.83
2019-03-11T15:37:35.298Z,59.33
2019-03-11T15:42:42.655Z,59.90
2019-03-11T15:47:49.701Z,60.86
2019-03-11T15:52:56.914Z,61.36
2019-03-11T15:58:04.139Z,62.29
2019-03-11T16:03:11.091Z,64.68
2019-03-11T16:08:18.031Z,65.94
2019-03-11T16:13:25.335Z,66.47
2019-03-11T16:18:32.410Z,70.60
2019-03-11T16:23:39.534Z,73.39
2019-03-11T16:28:48.334Z,76.09
2019-03-11T16:33:55.496Z,77.41
2019-03-11T16:39:03.725Z,79.20
2019-03-11T16:44:12.827Z,78.98
2019-03-11T16:49:19.752Z,79.96
2019-03-11T16:54:26.968Z,79.07
2019-03-11T16:59:33.886Z,78.43
2019-03-11T17:04:41.055Z,77.92
2019-03-11T17:09:48.546Z,77.76
2019-03-11T17:14:55.836Z,77.76
2019-03-11T17:20:03.092Z,77.36
2019-03-11T17:25:11.072Z,77.49
2019-03-11T17:30:18.246Z,77.59
2019-03-11T17:35:25.343Z,79.92
2019-03-11T17:40:32.581Z,79.84
2019-03-11T17:45:39.497Z,80.13
2019-03-11T17:50:47.848Z,81.43
2019-03-11T17:55:54.850Z,82.37
2019-03-11T18:01:02.429Z,82.23
2019-03-11T18:06:19.797Z,82.14
2019-03-11T18:11:26.727Z,82.44
2019-03-11T18:16:33.660Z,81.70
2019-03-11T18:21:40.669Z,81.70
2019-03-11T18:26:47.710Z,81.35
2019-03-11T18:32:01.819Z,81.59
2019-03-11T18:37:03.431Z,82.05
2019-03-11T18:42:11.562Z,82.05
2019-03-11T18:47:18.506Z,80.86
2019-03-11T18:52:25.519Z,81.07
2019-03-11T18:57:32.472Z,80.16
2019-03-11T19:02:39.584Z,79.53
2019-03-11T19:07:46.821Z,80.17
2019-03-11T19:12:53.865Z,79.46
2019-03-11T19:18:00.943Z,78.92
2019-03-11T19:23:08.146Z,80.19
2019-03-11T19:28:16.158Z,80.19
2019-03-11T19:33:23.154Z,81.56
2019-03-11T19:38:30.067Z,82.17
2019-03-11T19:43:37.112Z,82.55
2019-03-11T19:48:44.156Z,83.71
2019-03-11T19:53:51.065Z,84.53
2019-03-11T19:58:59.686Z,85.41
2019-03-11T20:04:06.992Z,84.77
2019-03-11T20:09:14.504Z,85.77
2019-03-11T20:14:21.744Z,86.41
2019-03-11T20:19:28.763Z,87.19
2019-03-11T20:24:35.777Z,87.18
2019-03-11T20:29:42.878Z,88.16
2019-03-11T20:34:50.164Z,88.19
2019-03-11T20:39:57.553Z,87.86
2019-03-11T20:45:05.162Z,88.21
2019-03-11T20:50:12.909Z,87.92
2019-03-11T20:55:20.353Z,88.15
2019-03-11T21:00:27.408Z,87.90
2019-03-11T21:05:35.616Z,87.73
2019-03-11T21:10:43.080Z,87.92
2019-03-11T21:15:49.969Z,88.01
2019-03-11T21:21:04.674Z,88.15
2019-03-11T21:26:05.942Z,88.15
2019-03-11T21:31:13.024Z,87.70
2019-03-11T21:36:20.021Z,87.56
2019-03-11T21:41:26.974Z,87.01
2019-03-11T21:46:33.921Z,87.01
2019-03-11T21:51:40.909Z,87.47
2019-03-11T21:56:47.842Z,86.66
2019-03-11T22:01:55.113Z,86.57
2019-03-11T22:07:02.429Z,86.69
2019-03-11T22:12:10.742Z,86.16
2019-03-11T22:17:20.896Z,86.34
2019-03-11T22:22:27.871Z,87.00
2019-03-11T22:27:34.814Z,86.56
2019-03-11T22:32:41.885Z,85.98
2019-03-11T22:37:49.195Z,85.67
2019-03-11T22:42:57.348Z,84.84
2019-03-11T22:48:04.393Z,84.74
2019-03-11T22:53:11.324Z,84.29
2019-03-11T22:58:18.250Z,84.50
2019-03-11T23:03:26.162Z,84.01
2019-03-11T23:08:33.237Z,83.66
2019-03-11T23:13:40.590Z,83.91
2019-03-11T23:18:47.565Z,83.98
2019-03-11T23:23:54.506Z,84.39
2019-03-11T23:29:01.604Z,83.84
2019-03-11T23:34:08.572Z,83.84
2019-03-11T23:39:15.495Z,83.57
2019-03-11T23:44:22.439Z,83.64
2019-03-11T23:49:29.479Z,83.54
2019-03-11T23:54:36.389Z,83.00
2019-03-11T23:59:43.309Z,83.70
